Time;durP1;ratioP1;P1;durP2;ratioP2;P2;SDS_P1;SDS_P2;PMS_P1;PMS_P2;Temp;Humidity;BMP_temperature;BMP_pressure;BME280_temperature;BME280_humidity;BME280_pressure;Samples;Min_cycle;Max_cycle;Signal;HPM_P1;HPM_P2
2021/10/30 00:00:47;;;;;;;;;;;;;;;;;;2052242;28;1296;-86
2021/10/30 00:01:49;;;;;;;;;;;;;;;;;;2051709;28;1193;-86
2021/10/30 00:02:51;;;;;;;;;;;;;;;;;;2060015;28;1458;-86
2021/10/30 00:03:52;;;;;;;;;;;;;;;;;;2044171;29;1358;-86
2021/10/30 00:04:55;;;;;;;;;;;;;;;;;;2051836;28;1356;-86
2021/10/30 00:05:56;;;;;;;;;;;;;;;;;;2051759;28;2013;-86
2021/10/30 00:06:59;;;;;;;;;;;;;;;;;;2059687;28;1198;-86
2021/10/30 00:07:59;;;;;;;;;;;;;;;;;;2060265;28;1276;-86
2021/10/30 00:09:01;;;;;;;;;;;;;;;;;;2051587;28;1430;-86
2021/10/30 00:10:05;;;;;;;;;;;;;;;;;;2043899;29;1214;-86
2021/10/30 00:11:06;;;;;;;;;;;;;;;;;;2051892;28;1863;-86
2021/10/30 00:12:08;;;;;;;;;;;;;;;;;;2059622;28;1910;-86
2021/10/30 00:13:09;;;;;;;;;;;;;;;;;;2059270;28;1339;-86
2021/10/30 00:14:11;;;;;;;;;;;;;;;;;;2060094;28;1394;-86
2021/10/30 00:15:12;;;;;;;;;;;;;;;;;;2059698;28;1256;-86
2021/10/30 00:16:14;;;;;;;;;;;;;;;;;;2051785;28;1336;-86
2021/10/30 00:17:15;;;;;;;;;;;;;;;;;;2059547;28;1331;-85
2021/10/30 00:18:17;;;;;;;;;;;;;;;;;;2059634;28;1213;-85
2021/10/30 00:19:18;;;;;;;;;;;;;;;;;;2059807;28;1304;-84
2021/10/30 00:20:20;;;;;;;;;;;;;;;;;;2059520;28;1244;-85
2021/10/30 00:21:22;;;;;;;;;;;;;;;;;;2059183;28;1928;-85
2021/10/30 00:22:23;;;;;;;;;;;;;;;;;;2059464;28;1321;-86
2021/10/30 00:23:25;;;;;;;;;;;;;;;;;;2059314;28;1313;-84
2021/10/30 00:24:26;;;;;;;;;;;;;;;;;;2051835;28;1241;-84
2021/10/30 00:25:29;;;;;;;;;;;;;;;;;;2051466;28;1273;-84
2021/10/30 00:26:30;;;;;;;;;;;;;;;;;;2059218;28;1912;-84
2021/10/30 00:27:32;;;;;;;;;;;;;;;;;;2059522;28;1241;-85
2021/10/30 00:28:33;;;;;;;;;;;;;;;;;;2051821;28;1310;-84
2021/10/30 00:29:34;;;;;;;;;;;;;;;;;;2051502;28;1305;-84
2021/10/30 00:30:35;;;;;;;;;;;;;;;;;;2043526;29;1198;-84
2021/10/30 00:31:37;;;;;;;;;;;;;;;;;;2043284;29;1324;-84
2021/10/30 00:32:38;;;;;;;;;;;;;;;;;;2044092;29;1915;-86
2021/10/30 00:33:40;;;;;;;;;;;;;;;;;;2043381;29;1430;-86
2021/10/30 00:34:40;;;;;;;;;;;;;;;;;;2051533;28;1237;-86
2021/10/30 00:35:42;;;;;;;;;;;;;;;;;;2051927;28;1992;-86
2021/10/30 00:36:43;;;;;;;;;;;;;;;;;;2051747;28;1230;-86
2021/10/30 00:37:45;;;;;;;;;;;;;;;;;;2051816;28;1351;-86
2021/10/30 00:38:46;;;;;;;;;;;;;;;;;;2059462;28;1294;-86
2021/10/30 00:39:48;;;;;;;;;;;;;;;;;;2059459;28;1174;-86
2021/10/30 00:40:50;;;;;;;;;;;;;;;;;;2050693;28;1938;-86
2021/10/30 00:41:53;;;;;;;;;;;;;;;;;;2051056;28;1177;-86
2021/10/30 00:42:54;;;;;;;;;;;;;;;;;;2059947;28;1590;-86
2021/10/30 00:43:56;;;;;;;;;;;;;;;;;;2059512;28;1266;-86
2021/10/30 00:44:57;;;;;;;;;;;;;;;;;;2052109;28;1368;-86
2021/10/30 00:45:59;;;;;;;;;;;;;;;;;;2051291;28;2009;-87
2021/10/30 00:47:00;;;;;;;;;;;;;;;;;;2051353;28;1180;-86
2021/10/30 00:48:02;;;;;;;;;;;;;;;;;;2051536;28;1233;-86
2021/10/30 00:49:02;;;;;;;;;;;;;;;;;;2051188;28;1182;-86
2021/10/30 00:50:05;;;;;;;;;;;;;;;;;;2043190;29;1419;-86
2021/10/30 00:51:07;;;;;;;;;;;;;;;;;;2051177;28;1437;-86
2021/10/30 00:52:10;;;;;;;;;;;;;;;;;;2051492;28;1666;-86
2021/10/30 00:53:11;;;;;;;;;;;;;;;;;;2056625;28;2073;-86
2021/10/30 00:54:14;;;;;;;;;;;;;;;;;;2059564;28;1331;-86
2021/10/30 00:55:17;;;;;;;;;;;;;;;;;;2050992;28;1221;-86
2021/10/30 00:56:21;;;;;;;;;;;;;;;;;;2053636;28;1857;-86
2021/10/30 00:57:23;;;;;;;;;;;;;;;;;;2043414;29;1243;-86
2021/10/30 00:58:24;;;;;;;;;;;;;;;;;;2043130;29;1256;-86
2021/10/30 00:59:26;;;;;;;;;;;;;;;;;;2051177;28;1339;-86
2021/10/30 01:00:26;;;;;;;;;;;;;;;;;;2051122;28;1355;-86
2021/10/30 01:01:28;;;;;;;;;;;;;;;;;;2058234;28;1861;-86
2021/10/30 01:02:29;;;;;;;;;;;;;;;;;;2051094;28;2172;-86
2021/10/30 01:03:32;;;;;;;;;;;;;;;;;;2051133;28;1273;-86
2021/10/30 01:04:33;;;;;;;;;;;;;;;;;;2051597;28;1178;-86
2021/10/30 01:05:35;;;;;;;;;;;;;;;;;;2051247;28;1832;-86
2021/10/30 01:06:37;;;;;;;;;;;;;;;;;;2043279;29;1345;-86
2021/10/30 01:07:39;;;;;;;;;;;;;;;;;;2044354;28;1288;-86
2021/10/30 01:08:41;;;;;;;;;;;;;;;;;;2051450;28;1483;-86
2021/10/30 01:09:42;;;;;;;;;;;;;;;;;;2043022;29;1201;-86
2021/10/30 01:10:43;;;;;;;;;;;;;;;;;;2050876;28;1905;-86
2021/10/30 01:11:47;;;;;;;;;;;;;;;;;;2058845;28;1292;-86
2021/10/30 01:12:49;;;;;;;;;;;;;;;;;;2052191;28;2069;-86
2021/10/30 01:13:51;;;;;;;;;;;;;;;;;;2043499;29;1222;-86
2021/10/30 01:14:53;;;;;;;;;;;;;;;;;;2051204;28;1356;-86
2021/10/30 01:15:54;;;;;;;;;;;;;;;;;;2058709;28;2090;-86
2021/10/30 01:17:00;;;;;;;;;;;;;;;;;;2043521;29;1205;-86
2021/10/30 01:18:00;;;;;;;;;;;;;;;;;;2044661;28;1419;-86
2021/10/30 01:19:02;;;;;;;;;;;;;;;;;;2051458;28;1359;-86
2021/10/30 01:20:05;;;;;;;;;;;;;;;;;;2059581;28;1359;-86
2021/10/30 01:21:09;;;;;;;;;;;;;;;;;;2051389;28;1385;-86
2021/10/30 01:22:11;;;;;;;;;;;;;;;;;;2043901;28;1312;-86
2021/10/30 01:23:13;;;;;;;;;;;;;;;;;;2059144;28;1248;-86
2021/10/30 01:24:15;;;;;;;;;;;;;;;;;;2059332;28;1369;-86
2021/10/30 01:25:20;;;;;;;;;;;;;;;;;;2050715;28;1289;-86
2021/10/30 01:26:22;;;;;;;;;;;;;;;;;;2053618;28;1289;-86
2021/10/30 01:27:23;;;;;;;;;;;;;;;;;;2043334;29;1294;-86
2021/10/30 01:28:25;;;;;;;;;;;;;;;;;;2043077;29;1199;-86
2021/10/30 01:29:27;;;;;;;;;;;;;;;;;;2051276;28;1375;-86
2021/10/30 01:30:29;;;;;;;;;;;;;;;;;;2051359;28;1351;-87
2021/10/30 01:31:31;;;;;;;;;;;;;;;;;;2058622;28;1250;-86
2021/10/30 01:32:33;;;;;;;;;;;;;;;;;;2058941;28;1895;-86
2021/10/30 01:33:34;;;;;;;;;;;;;;;;;;2051269;28;1337;-86
2021/10/30 01:34:36;;;;;;;;;;;;;;;;;;2050979;28;1273;-87
2021/10/30 01:35:40;;;;;;;;;;;;;;;;;;2059023;28;970;-87
2021/10/30 01:36:42;;;;;;;;;;;;;;;;;;2059266;28;1218;-86
2021/10/30 01:37:43;;;;;;;;;;;;;;;;;;2052631;28;2105;-86
2021/10/30 01:38:45;;;;;;;;;;;;;;;;;;2059022;28;1349;-86
2021/10/30 01:39:46;;;;;;;;;;;;;;;;;;2059209;28;1328;-87
2021/10/30 01:40:50;;;;;;;;;;;;;;;;;;2051174;28;1438;-87
2021/10/30 01:41:51;;;;;;;;;;;;;;;;;;2058978;28;1268;-87
2021/10/30 01:42:53;;;;;;;;;;;;;;;;;;2059270;28;1359;-86
2021/10/30 01:43:55;;;;;;;;;;;;;;;;;;2058767;28;1308;-86
2021/10/30 01:44:57;;;;;;;;;;;;;;;;;;2051587;28;1333;-87
2021/10/30 01:45:58;;;;;;;;;;;;;;;;;;2047523;28;2207;-87
2021/10/30 01:47:01;;;;;;;;;;;;;;;;;;2043370;29;1359;-87
2021/10/30 01:48:02;;;;;;;;;;;;;;;;;;2051513;28;1431;-87
2021/10/30 01:49:04;;;;;;;;;;;;;;;;;;2050387;28;1341;-87
2021/10/30 01:50:05;;;;;;;;;;;;;;;;;;2051102;28;1289;-86
2021/10/30 01:51:09;;;;;;;;;;;;;;;;;;2047367;29;1202;-87
2021/10/30 01:52:10;;;;;;;;;;;;;;;;;;2042672;29;1495;-87
2021/10/30 01:53:12;;;;;;;;;;;;;;;;;;2050556;28;1911;-86
2021/10/30 01:54:12;;;;;;;;;;;;;;;;;;2050930;28;1348;-86
2021/10/30 01:55:15;;;;;;;;;;;;;;;;;;2051053;28;1414;-86
2021/10/30 01:56:16;;;;;;;;;;;;;;;;;;2051144;28;1220;-86
2021/10/30 01:57:18;;;;;;;;;;;;;;;;;;2051136;28;1472;-86
2021/10/30 01:58:19;;;;;;;;;;;;;;;;;;2058926;28;1410;-86
2021/10/30 01:59:21;;;;;;;;;;;;;;;;;;2050990;28;1444;-86
2021/10/30 02:00:22;;;;;;;;;;;;;;;;;;2043587;29;1363;-86
2021/10/30 02:01:24;;;;;;;;;;;;;;;;;;2051020;28;1402;-86
2021/10/30 02:02:25;;;;;;;;;;;;;;;;;;2050775;28;1181;-86
2021/10/30 02:03:29;;;;;;;;;;;;;;;;;;2058727;28;1322;-86
2021/10/30 02:04:31;;;;;;;;;;;;;;;;;;2050854;28;1237;-86
2021/10/30 02:05:32;;;;;;;;;;;;;;;;;;2043121;29;1351;-86
2021/10/30 02:06:36;;;;;;;;;;;;;;;;;;2058935;28;2068;-86
2021/10/30 02:07:37;;;;;;;;;;;;;;;;;;2058825;28;1971;-86
2021/10/30 02:08:39;;;;;;;;;;;;;;;;;;2050917;28;1249;-86
2021/10/30 02:09:40;;;;;;;;;;;;;;;;;;2051044;28;1420;-86
2021/10/30 02:10:42;;;;;;;;;;;;;;;;;;2058773;28;1213;-86
2021/10/30 02:11:44;;;;;;;;;;;;;;;;;;2066530;28;1566;-85
2021/10/30 02:12:45;;;;;;;;;;;;;;;;;;2050983;28;1201;-86
2021/10/30 02:13:47;;;;;;;;;;;;;;;;;;2042540;28;1946;-86
2021/10/30 02:14:48;;;;;;;;;;;;;;;;;;2051270;28;1295;-86
2021/10/30 02:15:50;;;;;;;;;;;;;;;;;;2050381;28;1312;-86
2021/10/30 02:16:51;;;;;;;;;;;;;;;;;;2059182;28;1352;-86
2021/10/30 02:17:52;;;;;;;;;;;;;;;;;;2058827;28;1253;-86
2021/10/30 02:18:54;;;;;;;;;;;;;;;;;;2051440;28;1245;-86
2021/10/30 02:19:55;;;;;;;;;;;;;;;;;;2050967;28;1233;-86
2021/10/30 02:20:57;;;;;;;;;;;;;;;;;;2058585;28;1241;-86
2021/10/30 02:22:00;;;;;;;;;;;;;;;;;;2058682;28;1194;-86
2021/10/30 02:23:02;;;;;;;;;;;;;;;;;;2050798;28;1202;-86
2021/10/30 02:24:02;;;;;;;;;;;;;;;;;;2051175;28;1209;-86
2021/10/30 02:25:05;;;;;;;;;;;;;;;;;;2050724;28;1284;-84
2021/10/30 02:26:05;;;;;;;;;;;;;;;;;;2050819;28;1414;-85
2021/10/30 02:27:07;;;;;;;;;;;;;;;;;;2050461;28;1289;-85
2021/10/30 02:28:08;;;;;;;;;;;;;;;;;;2050838;28;1280;-84
2021/10/30 02:29:10;;;;;;;;;;;;;;;;;;2057497;28;1459;-85
2021/10/30 02:30:11;;;;;;;;;;;;;;;;;;2058513;28;1294;-85
2021/10/30 02:31:13;;;;;;;;;;;;;;;;;;2058578;28;1542;-85
2021/10/30 02:32:14;;;;;;;;;;;;;;;;;;2051091;28;1388;-85
2021/10/30 02:33:16;;;;;;;;;;;;;;;;;;2048771;29;2092;-85
2021/10/30 02:34:17;;;;;;;;;;;;;;;;;;2050907;28;1290;-84
2021/10/30 02:35:20;;;;;;;;;;;;;;;;;;2058391;28;1311;-85
2021/10/30 02:36:22;;;;;;;;;;;;;;;;;;2059134;28;1301;-85
2021/10/30 02:37:26;;;;;;;;;;;;;;;;;;2058247;28;1280;-85
2021/10/30 02:38:26;;;;;;;;;;;;;;;;;;2058820;28;845;-84
2021/10/30 02:39:28;;;;;;;;;;;;;;;;;;2058673;28;1211;-85
2021/10/30 02:40:30;;;;;;;;;;;;;;;;;;2051254;28;1333;-85
2021/10/30 02:41:32;;;;;;;;;;;;;;;;;;2057998;28;2111;-84
2021/10/30 02:42:33;;;;;;;;;;;;;;;;;;2058191;28;1220;-85
2021/10/30 02:43:35;;;;;;;;;;;;;;;;;;2050458;28;1326;-83
2021/10/30 02:44:36;;;;;;;;;;;;;;;;;;2050877;28;1218;-83
2021/10/30 02:45:38;;;;;;;;;;;;;;;;;;2058259;28;1248;-84
2021/10/30 02:46:39;;;;;;;;;;;;;;;;;;2043353;29;1355;-83
2021/10/30 02:47:41;;;;;;;;;;;;;;;;;;2050648;28;1300;-83
2021/10/30 02:48:41;;;;;;;;;;;;;;;;;;2050500;28;1424;-83
2021/10/30 02:49:43;;;;;;;;;;;;;;;;;;2050204;28;1367;-83
2021/10/30 02:50:44;;;;;;;;;;;;;;;;;;2051851;28;1217;-84
2021/10/30 02:51:45;;;;;;;;;;;;;;;;;;2057923;28;1171;-83
2021/10/30 02:52:48;;;;;;;;;;;;;;;;;;2058319;28;1235;-83
2021/10/30 02:53:49;;;;;;;;;;;;;;;;;;2058092;28;1902;-83
2021/10/30 02:54:50;;;;;;;;;;;;;;;;;;2050923;28;1299;-86
2021/10/30 02:55:52;;;;;;;;;;;;;;;;;;2049983;29;1850;-86
2021/10/30 02:56:53;;;;;;;;;;;;;;;;;;2050485;28;1204;-87
2021/10/30 02:57:54;;;;;;;;;;;;;;;;;;2050083;28;1220;-86
2021/10/30 02:58:55;;;;;;;;;;;;;;;;;;2050464;28;1312;-86
2021/10/30 02:59:58;;;;;;;;;;;;;;;;;;2050202;28;1224;-86
2021/10/30 03:00:59;;;;;;;;;;;;;;;;;;2050207;28;1950;-86
2021/10/30 03:02:01;;;;;;;;;;;;;;;;;;2050587;28;1336;-86
2021/10/30 03:03:03;;;;;;;;;;;;;;;;;;2058769;28;1225;-85
2021/10/30 03:04:04;;;;;;;;;;;;;;;;;;2060006;28;1477;-85
2021/10/30 03:05:07;;;;;;;;;;;;;;;;;;2052170;28;1380;-85
2021/10/30 03:06:08;;;;;;;;;;;;;;;;;;2060248;28;1241;-85
2021/10/30 03:07:10;;;;;;;;;;;;;;;;;;2059699;28;1218;-85
2021/10/30 03:08:14;;;;;;;;;;;;;;;;;;2059965;28;1388;-85
2021/10/30 03:09:14;;;;;;;;;;;;;;;;;;2052385;28;1218;-85
2021/10/30 03:10:16;;;;;;;;;;;;;;;;;;2060104;28;1351;-85
2021/10/30 03:11:17;;;;;;;;;;;;;;;;;;2059929;28;1216;-85
2021/10/30 03:12:19;;;;;;;;;;;;;;;;;;2052447;28;1314;-86
2021/10/30 03:13:21;;;;;;;;;;;;;;;;;;2052215;28;1983;-85
2021/10/30 03:14:22;;;;;;;;;;;;;;;;;;2059846;28;1293;-84
2021/10/30 03:15:24;;;;;;;;;;;;;;;;;;2052187;28;1277;-84
2021/10/30 03:16:24;;;;;;;;;;;;;;;;;;2052075;28;1196;-84
2021/10/30 03:17:26;;;;;;;;;;;;;;;;;;2052134;29;1273;-85
2021/10/30 03:18:27;;;;;;;;;;;;;;;;;;2051889;28;1221;-84
2021/10/30 03:19:29;;;;;;;;;;;;;;;;;;2052387;28;1388;-85
2021/10/30 03:20:29;;;;;;;;;;;;;;;;;;2059938;28;1210;-84
2021/10/30 03:21:32;;;;;;;;;;;;;;;;;;2051454;28;1867;-85
2021/10/30 03:22:33;;;;;;;;;;;;;;;;;;2059881;28;1193;-84
2021/10/30 03:23:38;;;;;;;;;;;;;;;;;;2060248;28;1197;-84
2021/10/30 03:24:42;;;;;;;;;;;;;;;;;;2060324;28;1262;-84
2021/10/30 03:25:45;;;;;;;;;;;;;;;;;;2060063;28;1375;-85
2021/10/30 03:26:46;;;;;;;;;;;;;;;;;;2060519;28;1352;-85
2021/10/30 03:27:48;;;;;;;;;;;;;;;;;;2059973;28;1330;-85
2021/10/30 03:28:49;;;;;;;;;;;;;;;;;;2051870;28;1313;-85
2021/10/30 03:29:51;;;;;;;;;;;;;;;;;;2044171;29;1225;-85
2021/10/30 03:30:52;;;;;;;;;;;;;;;;;;2044202;29;1848;-85
2021/10/30 03:31:54;;;;;;;;;;;;;;;;;;2052221;28;1258;-85
2021/10/30 03:32:54;;;;;;;;;;;;;;;;;;2059975;28;1319;-85
2021/10/30 03:33:56;;;;;;;;;;;;;;;;;;2051685;28;1964;-85
2021/10/30 03:34:57;;;;;;;;;;;;;;;;;;2052399;28;1411;-86
2021/10/30 03:35:59;;;;;;;;;;;;;;;;;;2044121;29;1919;-85
2021/10/30 03:37:01;;;;;;;;;;;;;;;;;;2051996;28;1308;-85
2021/10/30 03:38:02;;;;;;;;;;;;;;;;;;2059842;28;1498;-85
2021/10/30 03:39:05;;;;;;;;;;;;;;;;;;2059932;28;1269;-86
2021/10/30 03:40:07;;;;;;;;;;;;;;;;;;2060087;28;1406;-86
2021/10/30 03:41:09;;;;;;;;;;;;;;;;;;2050878;28;1704;-85
2021/10/30 03:42:10;;;;;;;;;;;;;;;;;;2051900;28;1205;-85
2021/10/30 03:43:12;;;;;;;;;;;;;;;;;;2051436;28;1329;-85
2021/10/30 03:44:14;;;;;;;;;;;;;;;;;;2060028;28;1357;-85
2021/10/30 03:45:15;;;;;;;;;;;;;;;;;;2059668;28;1446;-86
2021/10/30 03:46:17;;;;;;;;;;;;;;;;;;2059730;28;1905;-86
2021/10/30 03:47:18;;;;;;;;;;;;;;;;;;2059702;28;1193;-86
2021/10/30 03:48:20;;;;;;;;;;;;;;;;;;2059961;28;2068;-85
2021/10/30 03:49:24;;;;;;;;;;;;;;;;;;2051625;28;1296;-85
2021/10/30 03:50:25;;;;;;;;;;;;;;;;;;2052391;28;1311;-85
2021/10/30 03:51:27;;;;;;;;;;;;;;;;;;2059462;28;1917;-85
2021/10/30 03:52:27;;;;;;;;;;;;;;;;;;2067689;28;1558;-86
2021/10/30 03:53:29;;;;;;;;;;;;;;;;;;2059677;28;1983;-86
2021/10/30 03:54:32;;;;;;;;;;;;;;;;;;2060404;28;1421;-86
2021/10/30 03:55:34;;;;;;;;;;;;;;;;;;2059637;28;1214;-86
2021/10/30 03:56:35;;;;;;;;;;;;;;;;;;2051927;28;1216;-86
2021/10/30 03:57:37;;;;;;;;;;;;;;;;;;2051896;28;1386;-85
2021/10/30 03:58:38;;;;;;;;;;;;;;;;;;2052259;28;1456;-85
2021/10/30 03:59:41;;;;;;;;;;;;;;;;;;2051850;28;1218;-85
2021/10/30 04:00:41;;;;;;;;;;;;;;;;;;2052015;28;1296;-85
2021/10/30 04:01:43;;;;;;;;;;;;;;;;;;2051848;28;1194;-85
2021/10/30 04:02:44;;;;;;;;;;;;;;;;;;2059544;28;1180;-85
2021/10/30 04:03:46;;;;;;;;;;;;;;;;;;2051583;28;1309;-85
2021/10/30 04:04:47;;;;;;;;;;;;;;;;;;2052448;28;1296;-85
2021/10/30 04:05:49;;;;;;;;;;;;;;;;;;2059380;28;1916;-85
2021/10/30 04:06:50;;;;;;;;;;;;;;;;;;2059708;28;1248;-85
2021/10/30 04:07:52;;;;;;;;;;;;;;;;;;2059123;28;2088;-85
2021/10/30 04:08:53;;;;;;;;;;;;;;;;;;2052035;28;1346;-85
2021/10/30 04:09:56;;;;;;;;;;;;;;;;;;2051758;28;1250;-85
2021/10/30 04:10:57;;;;;;;;;;;;;;;;;;2059257;28;1307;-85
2021/10/30 04:11:58;;;;;;;;;;;;;;;;;;2051238;28;1333;-82
2021/10/30 04:12:59;;;;;;;;;;;;;;;;;;2051795;28;1216;-83
2021/10/30 04:14:01;;;;;;;;;;;;;;;;;;2059566;28;1910;-83
2021/10/30 04:15:02;;;;;;;;;;;;;;;;;;2067062;28;805;-83
2021/10/30 04:16:05;;;;;;;;;;;;;;;;;;2059185;28;1224;-83
2021/10/30 04:17:05;;;;;;;;;;;;;;;;;;2059710;28;891;-83
2021/10/30 04:18:07;;;;;;;;;;;;;;;;;;2059497;28;1250;-83
2021/10/30 04:19:08;;;;;;;;;;;;;;;;;;2059709;28;1352;-82
2021/10/30 04:20:10;;;;;;;;;;;;;;;;;;2059572;28;1238;-82
2021/10/30 04:21:11;;;;;;;;;;;;;;;;;;2059728;28;1362;-82
2021/10/30 04:22:13;;;;;;;;;;;;;;;;;;2059318;28;1248;-82
2021/10/30 04:23:14;;;;;;;;;;;;;;;;;;2058871;28;1226;-82
2021/10/30 04:24:15;;;;;;;;;;;;;;;;;;2067893;28;1004;-82
2021/10/30 04:25:18;;;;;;;;;;;;;;;;;;2051474;28;1223;-82
2021/10/30 04:26:19;;;;;;;;;;;;;;;;;;2050989;28;1874;-82
2021/10/30 04:27:20;;;;;;;;;;;;;;;;;;2051204;28;1300;-83
2021/10/30 04:28:22;;;;;;;;;;;;;;;;;;2043463;29;1292;-83
2021/10/30 04:29:25;;;;;;;;;;;;;;;;;;2051376;28;1516;-83
2021/10/30 04:30:25;;;;;;;;;;;;;;;;;;2051842;28;1273;-83
2021/10/30 04:31:29;;;;;;;;;;;;;;;;;;2043193;29;1309;-83
2021/10/30 04:32:31;;;;;;;;;;;;;;;;;;2059836;28;840;-84
2021/10/30 04:33:33;;;;;;;;;;;;;;;;;;2051539;28;1209;-83
2021/10/30 04:34:41;;;;;;;;;;;;;;;;;;2043483;29;1915;-83
2021/10/30 04:35:43;;;;;;;;;;;;;;;;;;2051449;29;1239;-83
2021/10/30 04:36:45;;;;;;;;;;;;;;;;;;2051717;28;1237;-83
2021/10/30 04:37:47;;;;;;;;;;;;;;;;;;2052845;28;1229;-82
2021/10/30 04:38:48;;;;;;;;;;;;;;;;;;2059675;28;1375;-83
2021/10/30 04:39:51;;;;;;;;;;;;;;;;;;2059483;28;1368;-83
2021/10/30 04:40:53;;;;;;;;;;;;;;;;;;2051486;28;1854;-83
2021/10/30 04:41:55;;;;;;;;;;;;;;;;;;2051094;28;1215;-83
2021/10/30 04:42:55;;;;;;;;;;;;;;;;;;2051208;28;1392;-84
2021/10/30 04:43:57;;;;;;;;;;;;;;;;;;2051331;28;1319;-83
2021/10/30 04:44:58;;;;;;;;;;;;;;;;;;2051266;28;1323;-83
2021/10/30 04:46:00;;;;;;;;;;;;;;;;;;2051545;28;1290;-82
2021/10/30 04:47:00;;;;;;;;;;;;;;;;;;2058952;28;1322;-83
2021/10/30 04:48:02;;;;;;;;;;;;;;;;;;2055888;28;1329;-82
2021/10/30 04:49:03;;;;;;;;;;;;;;;;;;2059771;28;1233;-82
2021/10/30 04:50:05;;;;;;;;;;;;;;;;;;2051909;28;1313;-82
2021/10/30 04:51:06;;;;;;;;;;;;;;;;;;2058503;28;1273;-82
2021/10/30 04:52:08;;;;;;;;;;;;;;;;;;2051371;28;1242;-83
2021/10/30 04:53:09;;;;;;;;;;;;;;;;;;2043150;29;1197;-83
2021/10/30 04:54:11;;;;;;;;;;;;;;;;;;2043654;29;1914;-83
2021/10/30 04:55:11;;;;;;;;;;;;;;;;;;2043532;29;1194;-84
2021/10/30 04:56:15;;;;;;;;;;;;;;;;;;2051297;28;1210;-83
2021/10/30 04:57:16;;;;;;;;;;;;;;;;;;2058965;28;971;-81
2021/10/30 04:58:18;;;;;;;;;;;;;;;;;;2065662;28;1344;-82
2021/10/30 04:59:18;;;;;;;;;;;;;;;;;;2059524;28;1343;-81
2021/10/30 05:00:20;;;;;;;;;;;;;;;;;;2051238;28;1217;-81
2021/10/30 05:01:21;;;;;;;;;;;;;;;;;;2059134;28;960;-82
2021/10/30 05:02:23;;;;;;;;;;;;;;;;;;2058872;28;1672;-81
2021/10/30 05:03:23;;;;;;;;;;;;;;;;;;2059053;28;1185;-82
2021/10/30 05:04:25;;;;;;;;;;;;;;;;;;2058954;28;1447;-81
2021/10/30 05:05:27;;;;;;;;;;;;;;;;;;2051042;28;1517;-81
2021/10/30 05:06:28;;;;;;;;;;;;;;;;;;2051108;28;1607;-81
2021/10/30 05:07:30;;;;;;;;;;;;;;;;;;2043202;29;1340;-82
2021/10/30 05:08:31;;;;;;;;;;;;;;;;;;2059500;28;1537;-81
2021/10/30 05:09:33;;;;;;;;;;;;;;;;;;2051029;28;1352;-81
2021/10/30 05:10:34;;;;;;;;;;;;;;;;;;2050590;28;1302;-82
2021/10/30 05:11:37;;;;;;;;;;;;;;;;;;2050821;28;1174;-82
2021/10/30 05:12:40;;;;;;;;;;;;;;;;;;2059401;28;1354;-81
2021/10/30 05:13:40;;;;;;;;;;;;;;;;;;2059191;28;796;-81
2021/10/30 05:14:42;;;;;;;;;;;;;;;;;;2051011;28;1971;-81
2021/10/30 05:15:43;;;;;;;;;;;;;;;;;;2051201;28;1864;-81
2021/10/30 05:16:45;;;;;;;;;;;;;;;;;;2051132;28;1525;-81
2021/10/30 05:17:45;;;;;;;;;;;;;;;;;;2048557;28;1873;-82
2021/10/30 05:18:47;;;;;;;;;;;;;;;;;;2051206;28;1276;-81
2021/10/30 05:19:48;;;;;;;;;;;;;;;;;;2059034;28;1571;-81
2021/10/30 05:20:51;;;;;;;;;;;;;;;;;;2051155;28;1202;-81
2021/10/30 05:21:51;;;;;;;;;;;;;;;;;;2051291;28;1807;-81
2021/10/30 05:22:53;;;;;;;;;;;;;;;;;;2059146;28;1228;-81
2021/10/30 05:23:54;;;;;;;;;;;;;;;;;;2050971;28;1477;-81
2021/10/30 05:24:56;;;;;;;;;;;;;;;;;;2051030;28;1213;-82
2021/10/30 05:25:57;;;;;;;;;;;;;;;;;;2061400;28;2015;-78
2021/10/30 05:27:00;;;;;;;;;;;;;;;;;;2057528;28;1749;-80
2021/10/30 05:28:00;;;;;;;;;;;;;;;;;;2054138;28;1855;-78
2021/10/30 05:29:02;;;;;;;;;;;;;;;;;;2050925;28;1547;-79
2021/10/30 05:30:04;;;;;;;;;;;;;;;;;;2059172;28;1555;-78
2021/10/30 05:31:05;;;;;;;;;;;;;;;;;;2062757;28;1856;-79
2021/10/30 05:32:07;;;;;;;;;;;;;;;;;;2058937;28;1682;-78
2021/10/30 05:33:16;;;;;;;;;;;;;;;;;;2051991;28;1481;-78
2021/10/30 05:34:38;;;;;;;;;;;;;;;;;;2059098;28;1985;-78
2021/10/30 05:35:57;;;;;;;;;;;;;;;;;;2056440;28;693;-78
2021/10/30 05:37:09;;;;;;;;;;;;;;;;;;2059085;28;1689;-78
2021/10/30 05:38:31;;;;;;;;;;;;;;;;;;2058339;28;1154;-79
2021/10/30 05:39:32;;;;;;;;;;;;;;;;;;2053369;28;1533;-78
2021/10/30 05:40:35;;;;;;;;;;;;;;;;;;2058887;28;1761;-79
2021/10/30 05:41:35;;;;;;;;;;;;;;;;;;2058482;28;893;-79
2021/10/30 05:42:40;;;;;;;;;;;;;;;;;;2059926;28;1640;-78
2021/10/30 05:43:41;;;;;;;;;;;;;;;;;;2058590;28;1588;-79
2021/10/30 05:44:43;;;;;;;;;;;;;;;;;;2050863;29;1363;-78
2021/10/30 05:45:45;;;;;;;;;;;;;;;;;;2058268;28;2097;-79
2021/10/30 05:46:47;;;;;;;;;;;;;;;;;;2050600;29;1540;-78
2021/10/30 05:47:48;;;;;;;;;;;;;;;;;;2044599;28;2109;-78
2021/10/30 05:48:51;;;;;;;;;;;;;;;;;;2050808;29;1696;-78
2021/10/30 05:49:53;;;;;;;;;;;;;;;;;;2050916;28;1555;-79
2021/10/30 05:50:54;;;;;;;;;;;;;;;;;;2058207;28;1985;-78
2021/10/30 05:51:56;;;;;;;;;;;;;;;;;;2066573;28;1562;-78
2021/10/30 05:52:58;;;;;;;;;;;;;;;;;;2058379;28;2017;-78
2021/10/30 05:53:59;;;;;;;;;;;;;;;;;;2050520;28;1415;-78
2021/10/30 05:55:00;;;;;;;;;;;;;;;;;;2058382;28;1914;-78
2021/10/30 05:56:01;;;;;;;;;;;;;;;;;;2058624;28;1606;-78
2021/10/30 05:57:03;;;;;;;;;;;;;;;;;;2050068;28;1636;-79
2021/10/30 05:58:05;;;;;;;;;;;;;;;;;;2050820;28;1604;-78
2021/10/30 05:59:07;;;;;;;;;;;;;;;;;;2050225;28;1566;-79
2021/10/30 06:00:08;;;;;;;;;;;;;;;;;;2050852;29;1347;-78
2021/10/30 06:01:19;;;;;;;;;;;;;;;;;;2050673;29;781;-78
2021/10/30 06:02:20;;;;;;;;;;;;;;;;;;2050655;28;1504;-79
2021/10/30 06:03:21;;;;;;;;;;;;;;;;;;2057315;28;2038;-78
2021/10/30 06:04:22;;;;;;;;;;;;;;;;;;2058876;28;853;-78
2021/10/30 06:05:24;;;;;;;;;;;;;;;;;;2050668;28;1674;-78
2021/10/30 06:06:25;;;;;;;;;;;;;;;;;;2057284;28;1865;-78
2021/10/30 06:07:26;;;;;;;;;;;;;;;;;;2058430;28;1879;-79
2021/10/30 06:08:28;;;;;;;;;;;;;;;;;;2050481;28;1582;-79
2021/10/30 06:09:28;;;;;;;;;;;;;;;;;;2058453;28;1671;-78
2021/10/30 06:10:31;;;;;;;;;;;;;;;;;;2058686;28;1662;-79
2021/10/30 06:11:32;;;;;;;;;;;;;;;;;;2058509;28;1592;-78
2021/10/30 06:12:38;;;;;;;;;;;;;;;;;;2057802;28;2006;-78
2021/10/30 06:13:41;;;;;;;;;;;;;;;;;;2050428;29;1651;-78
2021/10/30 06:14:42;;;;;;;;;;;;;;;;;;2050481;28;1968;-78
2021/10/30 06:15:43;;;;;;;;;;;;;;;;;;2050378;29;1707;-79
2021/10/30 06:16:44;;;;;;;;;;;;;;;;;;2050701;28;1484;-78
2021/10/30 06:17:46;;;;;;;;;;;;;;;;;;2052296;28;1584;-79
2021/10/30 06:18:47;;;;;;;;;;;;;;;;;;2066729;28;1820;-78
2021/10/30 06:19:49;;;;;;;;;;;;;;;;;;2050197;29;1706;-78
2021/10/30 06:20:50;;;;;;;;;;;;;;;;;;2049073;29;1992;-79
2021/10/30 06:21:51;;;;;;;;;;;;;;;;;;2050231;28;1233;-78
2021/10/30 06:22:53;;;;;;;;;;;;;;;;;;2053632;28;1910;-78
2021/10/30 06:23:54;;;;;;;;;;;;;;;;;;2042424;29;1673;-78
2021/10/30 06:24:55;;;;;;;;;;;;;;;;;;2042629;29;1592;-78
2021/10/30 06:25:57;;;;;;;;;;;;;;;;;;2045241;29;2076;-79
2021/10/30 06:26:59;;;;;;;;;;;;;;;;;;2042340;28;1704;-80
2021/10/30 06:28:00;;;;;;;;;;;;;;;;;;2054180;28;2037;-78
2021/10/30 06:29:03;;;;;;;;;;;;;;;;;;2058399;28;1555;-79
2021/10/30 06:30:05;;;;;;;;;;;;;;;;;;2050424;29;1744;-78
2021/10/30 06:31:06;;;;;;;;;;;;;;;;;;2054542;28;1533;-78
2021/10/30 06:32:07;;;;;;;;;;;;;;;;;;2057828;28;1627;-79
2021/10/30 06:33:08;;;;;;;;;;;;;;;;;;2045460;29;1568;-78
2021/10/30 06:34:11;;;;;;;;;;;;;;;;;;2050593;29;1655;-79
2021/10/30 06:35:12;;;;;;;;;;;;;;;;;;2042533;29;1966;-79
2021/10/30 06:36:14;;;;;;;;;;;;;;;;;;2055567;28;1547;-79
2021/10/30 06:37:14;;;;;;;;;;;;;;;;;;2058298;28;1705;-79
2021/10/30 06:38:16;;;;;;;;;;;;;;;;;;2042789;29;1756;-79
2021/10/30 06:39:17;;;;;;;;;;;;;;;;;;2050653;28;1514;-79
2021/10/30 06:40:20;;;;;;;;;;;;;;;;;;2050496;28;1556;-79
2021/10/30 06:41:21;;;;;;;;;;;;;;;;;;2043226;29;1906;-78
2021/10/30 06:42:23;;;;;;;;;;;;;;;;;;2042188;29;1575;-79
2021/10/30 06:43:23;;;;;;;;;;;;;;;;;;2050323;29;1708;-79
2021/10/30 06:44:27;;;;;;;;;;;;;;;;;;2050712;28;1728;-79
2021/10/30 06:45:27;;;;;;;;;;;;;;;;;;2050488;28;1761;-78
2021/10/30 06:46:29;;;;;;;;;;;;;;;;;;2050291;28;2032;-79
2021/10/30 06:47:32;;;;;;;;;;;;;;;;;;2050202;29;1166;-79
2021/10/30 06:48:33;;;;;;;;;;;;;;;;;;2050288;28;1379;-78
2021/10/30 06:49:35;;;;;;;;;;;;;;;;;;2050245;28;1550;-79
2021/10/30 06:50:37;;;;;;;;;;;;;;;;;;2050552;29;1781;-79
2021/10/30 06:51:38;;;;;;;;;;;;;;;;;;2050255;28;1709;-79
2021/10/30 06:52:41;;;;;;;;;;;;;;;;;;2058835;28;1792;-79
2021/10/30 06:53:41;;;;;;;;;;;;;;;;;;2050493;28;1615;-79
2021/10/30 06:54:43;;;;;;;;;;;;;;;;;;2050341;28;1915;-79
2021/10/30 06:55:45;;;;;;;;;;;;;;;;;;2058014;28;1292;-79
2021/10/30 06:56:45;;;;;;;;;;;;;;;;;;2050530;28;1598;-78
2021/10/30 06:57:47;;;;;;;;;;;;;;;;;;2049786;28;1683;-78
2021/10/30 06:58:48;;;;;;;;;;;;;;;;;;2042321;29;1501;-81
2021/10/30 06:59:51;;;;;;;;;;;;;;;;;;2050086;28;1087;-79
2021/10/30 07:00:52;;;;;;;;;;;;;;;;;;2058267;28;1539;-79
2021/10/30 07:01:54;;;;;;;;;;;;;;;;;;2058161;28;1551;-79
2021/10/30 07:02:55;;;;;;;;;;;;;;;;;;2054125;28;1707;-79
2021/10/30 07:03:56;;;;;;;;;;;;;;;;;;2066373;28;797;-79
2021/10/30 07:04:59;;;;;;;;;;;;;;;;;;2058195;28;1578;-83
2021/10/30 07:06:00;;;;;;;;;;;;;;;;;;2050108;28;1894;-80
2021/10/30 07:07:01;;;;;;;;;;;;;;;;;;2052616;28;1513;-80
2021/10/30 07:08:03;;;;;;;;;;;;;;;;;;2049851;28;1520;-80
2021/10/30 07:09:05;;;;;;;;;;;;;;;;;;2042656;29;1661;-79
2021/10/30 07:10:06;;;;;;;;;;;;;;;;;;2056560;28;1653;-79